Atyray, Kazakhstan

11:11 PM AQTT on December 19, 2014 (GMT +0500)
Atyrau | Change Station
CLOSE
Current Station
Airport
Location: Atyrau,
Elevation: -72 ft
Nearby Weather Stations

Elev -72 ft 47.12 °N, 51.83 °E | Updated 11 minutes ago

Mostly Cloudy
Mostly Cloudy
30 °F
Feels Like 21 °F
N
11
Wind Variable Wind from SSE

Today
High -- | Low -- °F
--% Chance of Precip.
Yesterday
High -- | Low -- °F
Precip. -- in
9:14 AM 5:44 PM
Waning Crescent, 7% visible
Pressure 30.15 in
Visibility 3.1 miles
Clouds Mostly Cloudy 5000 ft
Windchill 21 °F
Dew Point 30 °F
Humidity 100%
Rainfall 0.00 in
Snow Depth Not available.
UV 0 out of 12
Pollen Not available.
Air Quality Not available.
Flu Activity Not available.
METAR UATG 191800Z 15005MPS 5000 BR BKN050 M01/M01 Q1021 R14/19//65 NOSIG RMK QFE768/1024

More Conditions Fewer Conditions

Pressure 30.15 in
Visibility 3.1 miles
Clouds Mostly Cloudy 5000 ft
Windchill 21 °F
Dew Point 30 °F
Humidity 100%
Rainfall 0.00 in
Snow Depth Not available.
UV 0 out of 12
Pollen Not available.
Air Quality Not available.
Flu Activity Not available.
METAR UATG 191800Z 15005MPS 5000 BR BKN050 M01/M01 Q1021 R14/19//65 NOSIG RMK QFE768/1024

More Conditions Fewer Conditions

10-Day Weather Forecast

Almanac

Astronomy

Dec. 19, 2014 Rise Set
Actual Time
Civil Twilight
Nautical Twilight
Astronomical Twilight
Moon
Length of Visible Light
Length of Day
Tomorrow will be .
, % of the Moon is Illuminated

Today's Extremes

Country Highs Country Lows

Community

WunderPhotos

Upload Photos

1,779,015 photos uploaded!

WunderBlogs® & News

Nearby

Air Quality

  Air Quality AQ Index Pollutant
Not available.

Snow Depth

Station Depth Elevation

Earthquake Activity

City Distance Mag. Time & Date
Minimum magnitude displayed is 2.5.

Coastal Water Temperatures

Place Temperature

Nearby Weather Stations